createdAt,value
2018-09-24T00:01:19.782Z,13.40
2018-09-24T00:03:48.381Z,13.30
2018-09-24T00:06:16.967Z,13.70
2018-09-24T00:08:45.611Z,13.40
2018-09-24T00:11:14.188Z,13.60
2018-09-24T00:13:42.934Z,13.50
2018-09-24T00:16:11.492Z,13.60
2018-09-24T00:18:40.049Z,13.20
2018-09-24T00:21:08.967Z,13.50
2018-09-24T00:23:37.563Z,13.50
2018-09-24T00:26:06.227Z,13.60
2018-09-24T00:28:34.854Z,13.80
2018-09-24T00:31:03.608Z,13.50
2018-09-24T00:33:32.199Z,13.60
2018-09-24T00:36:00.790Z,13.50
2018-09-24T00:38:29.449Z,13.30
2018-09-24T00:40:58.017Z,13.60
2018-09-24T00:43:26.749Z,13.50
2018-09-24T00:45:55.404Z,13.50
2018-09-24T00:48:23.953Z,13.50
2018-09-24T00:50:52.498Z,13.50
2018-09-24T00:53:21.102Z,13.20
2018-09-24T00:55:49.813Z,13.20
2018-09-24T00:58:18.480Z,13.50
2018-09-24T01:00:47.065Z,13.30
2018-09-24T01:03:15.654Z,13.50
2018-09-24T01:05:44.322Z,13.40
2018-09-24T01:08:13.128Z,13.30
2018-09-24T01:10:41.689Z,13.40
2018-09-24T01:13:10.318Z,13.20
2018-09-24T01:15:38.905Z,13.40
2018-09-24T01:18:07.484Z,13.20
2018-09-24T01:20:36.107Z,13.40
2018-09-24T01:23:04.934Z,13.50
2018-09-24T01:25:33.511Z,13.40
2018-09-24T01:28:02.168Z,13.10
2018-09-24T01:30:30.818Z,13.20
2018-09-24T01:33:00.092Z,13.10
2018-09-24T01:35:29.158Z,13.30
2018-09-24T01:37:57.814Z,13.10
2018-09-24T01:40:26.444Z,13.10
2018-09-24T01:42:55.078Z,13.10
2018-09-24T01:45:23.690Z,13.20
2018-09-24T01:47:52.967Z,13.10
2018-09-24T01:50:21.722Z,13.10
2018-09-24T01:52:50.375Z,13.40
2018-09-24T01:55:18.949Z,13.00
2018-09-24T01:57:47.522Z,13.30
2018-09-24T02:00:16.084Z,13.20
2018-09-24T02:02:44.632Z,13.20
2018-09-24T02:05:16.478Z,13.30
2018-09-24T02:07:45.054Z,13.00
2018-09-24T02:10:13.749Z,13.10
2018-09-24T02:12:42.482Z,13.30
2018-09-24T02:15:11.172Z,13.20
2018-09-24T02:17:39.722Z,13.10
2018-09-24T02:20:08.316Z,13.20
2018-09-24T02:22:36.950Z,13.00
2018-09-24T02:25:05.570Z,13.10
2018-09-24T02:27:36.470Z,12.90
2018-09-24T02:30:05.234Z,12.80
2018-09-24T02:32:33.903Z,13.10
2018-09-24T02:35:02.600Z,13.20
2018-09-24T02:37:31.255Z,13.10
2018-09-24T02:39:59.841Z,13.00
2018-09-24T02:42:28.460Z,13.10
2018-09-24T02:44:58.465Z,13.00
2018-09-24T02:47:31.622Z,12.90
2018-09-24T02:50:01.188Z,13.10
2018-09-24T02:52:29.708Z,13.10
2018-09-24T02:54:58.332Z,12.90
2018-09-24T02:57:26.922Z,13.00
2018-09-24T02:59:55.637Z,12.90
2018-09-24T03:02:24.244Z,12.90
2018-09-24T03:04:56.736Z,12.90
2018-09-24T03:07:25.369Z,13.10
2018-09-24T03:09:53.920Z,13.10
2018-09-24T03:12:22.525Z,13.10
2018-09-24T03:14:51.194Z,12.90
2018-09-24T03:17:20.455Z,13.10
2018-09-24T03:19:49.071Z,13.20
2018-09-24T03:22:21.274Z,13.10
2018-09-24T03:24:50.260Z,13.10
2018-09-24T03:27:19.064Z,12.80
2018-09-24T03:29:47.595Z,12.80
2018-09-24T03:32:16.230Z,13.10
2018-09-24T03:34:44.777Z,12.90
2018-09-24T03:37:13.375Z,12.80
2018-09-24T03:39:42.516Z,12.90
2018-09-24T03:42:11.104Z,12.80
2018-09-24T03:44:39.774Z,13.10
2018-09-24T03:47:08.364Z,12.80
2018-09-24T03:49:36.914Z,12.80
2018-09-24T03:52:05.487Z,12.90
2018-09-24T03:54:34.182Z,12.90
2018-09-24T03:57:02.888Z,12.70
2018-09-24T03:59:31.484Z,12.80
2018-09-24T04:02:00.205Z,12.90
2018-09-24T04:04:34.152Z,12.90
2018-09-24T04:07:08.017Z,12.70
2018-09-24T04:09:41.872Z,12.70
2018-09-24T04:12:15.740Z,12.70
2018-09-24T04:14:49.568Z,12.80
2018-09-24T04:17:23.338Z,12.70
2018-09-24T04:19:57.138Z,12.80
2018-09-24T04:22:31.064Z,12.60
2018-09-24T04:25:04.973Z,12.60
2018-09-24T04:27:38.887Z,12.60
2018-09-24T04:30:12.667Z,12.50
2018-09-24T04:32:46.359Z,12.60
2018-09-24T04:35:20.188Z,12.70
2018-09-24T04:37:54.049Z,12.60
2018-09-24T04:40:27.997Z,12.70
2018-09-24T04:43:01.931Z,12.60
2018-09-24T04:45:36.069Z,12.50
2018-09-24T04:48:10.240Z,12.70
2018-09-24T04:50:44.116Z,12.60
2018-09-24T04:53:17.966Z,12.40
2018-09-24T04:55:51.764Z,12.50
2018-09-24T04:58:25.615Z,12.50
2018-09-24T05:00:59.557Z,12.30
2018-09-24T05:03:33.494Z,12.50
2018-09-24T05:06:07.453Z,12.50
2018-09-24T05:08:41.996Z,12.60
2018-09-24T05:11:15.985Z,12.60
2018-09-24T05:13:49.974Z,12.60
2018-09-24T05:16:23.934Z,12.20
2018-09-24T05:18:57.792Z,12.30
2018-09-24T05:21:31.653Z,13.00
2018-09-24T05:24:05.508Z,12.90
2018-09-24T05:26:39.668Z,12.70
2018-09-24T05:29:13.718Z,12.60
2018-09-24T05:31:48.884Z,12.60
2018-09-24T05:34:23.021Z,12.50
2018-09-24T05:36:56.878Z,12.60
2018-09-24T05:39:30.777Z,12.70
2018-09-24T05:42:04.601Z,12.30
2018-09-24T05:44:38.534Z,12.40
2018-09-24T05:47:12.521Z,12.50
2018-09-24T05:49:46.488Z,12.40
2018-09-24T05:52:20.400Z,12.40
2018-09-24T05:54:54.256Z,12.30
2018-09-24T05:57:27.988Z,12.60
2018-09-24T06:00:01.902Z,12.20
2018-09-24T06:02:36.404Z,12.20
2018-09-24T06:05:10.299Z,12.60
2018-09-24T06:07:44.185Z,12.30
2018-09-24T06:10:18.236Z,12.20
2018-09-24T06:12:52.218Z,12.30
2018-09-24T06:15:26.232Z,12.50
2018-09-24T06:18:00.152Z,12.50
2018-09-24T06:20:34.050Z,12.20
2018-09-24T06:23:08.085Z,12.30
2018-09-24T06:25:42.026Z,12.30
2018-09-24T06:28:15.864Z,12.20
2018-09-24T06:30:49.720Z,12.50
2018-09-24T06:33:23.526Z,12.50
2018-09-24T06:35:57.653Z,12.40
2018-09-24T06:38:31.615Z,12.20
2018-09-24T06:41:05.619Z,12.40
2018-09-24T06:43:39.765Z,12.20
2018-09-24T06:46:13.776Z,12.30
2018-09-24T06:48:47.974Z,12.30
2018-09-24T06:51:21.725Z,12.40
2018-09-24T06:53:55.753Z,12.40
2018-09-24T06:56:29.783Z,12.50
2018-09-24T06:59:03.650Z,12.40
2018-09-24T07:01:37.554Z,12.30
2018-09-24T07:04:11.402Z,12.30
2018-09-24T07:06:45.208Z,12.30
2018-09-24T07:09:19.205Z,12.50
2018-09-24T07:11:53.076Z,12.60
2018-09-24T07:14:27.019Z,12.30
2018-09-24T07:17:01.126Z,12.60
2018-09-24T07:19:35.770Z,12.90
2018-09-24T07:22:09.712Z,12.80
2018-09-24T07:24:43.659Z,12.90
2018-09-24T07:27:17.525Z,12.80
2018-09-24T07:29:51.481Z,12.60
2018-09-24T07:32:25.394Z,12.70
2018-09-24T07:34:59.311Z,12.90
2018-09-24T07:37:33.820Z,12.90
2018-09-24T07:40:07.779Z,13.10
2018-09-24T07:42:41.712Z,12.90
2018-09-24T07:45:15.513Z,13.20
2018-09-24T07:47:49.437Z,13.30
2018-09-24T07:50:30.383Z,13.00
2018-09-24T07:53:04.228Z,13.10
2018-09-24T07:55:38.013Z,13.20
2018-09-24T07:58:11.818Z,13.10
2018-09-24T08:00:45.933Z,13.30
2018-09-24T08:03:19.931Z,13.10
2018-09-24T08:05:53.905Z,13.20
2018-09-24T08:08:27.913Z,13.20
2018-09-24T08:11:01.791Z,13.30
2018-09-24T08:13:35.547Z,13.10
2018-09-24T08:16:09.837Z,13.10
2018-09-24T08:18:43.752Z,13.40
2018-09-24T08:21:17.612Z,13.20
2018-09-24T08:23:51.596Z,13.20
2018-09-24T08:26:25.335Z,13.00
2018-09-24T08:28:59.228Z,13.10
2018-09-24T08:31:33.265Z,13.30
2018-09-24T08:34:07.179Z,13.30
2018-09-24T08:36:40.940Z,13.70
2018-09-24T08:39:14.809Z,13.80
2018-09-24T08:41:48.771Z,13.60
2018-09-24T08:44:22.917Z,13.50
2018-09-24T08:46:56.775Z,13.70
2018-09-24T08:49:30.711Z,13.60
2018-09-24T08:52:04.422Z,13.70
2018-09-24T08:54:38.293Z,13.80
2018-09-24T08:57:12.793Z,13.50
2018-09-24T08:59:46.647Z,13.80
2018-09-24T09:02:20.521Z,13.40
2018-09-24T09:04:54.307Z,13.70
2018-09-24T09:07:28.320Z,13.60
2018-09-24T09:10:02.378Z,13.60
2018-09-24T09:12:36.427Z,13.50
2018-09-24T09:15:10.442Z,13.90
2018-09-24T09:17:44.301Z,13.50
2018-09-24T09:20:18.388Z,13.60
2018-09-24T09:22:52.356Z,14.00
2018-09-24T09:25:26.300Z,14.10
2018-09-24T09:28:00.059Z,14.20
2018-09-24T09:30:34.122Z,14.30
2018-09-24T09:33:08.617Z,14.10
2018-09-24T09:35:42.521Z,13.90
2018-09-24T09:38:16.438Z,14.00
2018-09-24T09:40:50.499Z,14.10
2018-09-24T09:43:24.543Z,14.20
2018-09-24T09:45:58.570Z,14.20
2018-09-24T09:48:32.361Z,14.40
2018-09-24T09:51:06.318Z,14.40
2018-09-24T09:53:40.075Z,14.40
2018-09-24T09:56:14.190Z,14.30
2018-09-24T09:58:47.972Z,14.00
2018-09-24T10:01:21.961Z,14.00
2018-09-24T10:03:55.910Z,14.10
2018-09-24T10:06:29.771Z,14.40
2018-09-24T10:09:03.832Z,14.20
2018-09-24T10:11:37.847Z,14.50
2018-09-24T10:14:11.914Z,14.60
2018-09-24T10:16:52.666Z,14.40
2018-09-24T10:19:26.772Z,14.60
2018-09-24T10:22:00.622Z,14.90
2018-09-24T10:24:34.549Z,14.90
2018-09-24T10:27:08.444Z,14.70
2018-09-24T10:29:42.263Z,14.90
2018-09-24T10:32:16.037Z,14.80
2018-09-24T10:34:50.017Z,14.40
2018-09-24T10:37:24.008Z,14.70
2018-09-24T10:39:57.936Z,14.80
2018-09-24T10:42:31.828Z,14.70
2018-09-24T10:45:05.668Z,14.50
2018-09-24T10:47:39.658Z,14.70
2018-09-24T10:50:13.574Z,15.00
2018-09-24T10:52:47.432Z,14.80
2018-09-24T10:55:21.483Z,14.90
2018-09-24T10:57:55.326Z,15.00
2018-09-24T11:00:29.920Z,14.90
2018-09-24T11:03:03.704Z,14.90
2018-09-24T11:05:37.470Z,14.80
2018-09-24T11:08:11.523Z,15.10
2018-09-24T11:10:45.601Z,15.00
2018-09-24T11:13:19.597Z,15.20
2018-09-24T11:15:53.541Z,15.10
2018-09-24T11:18:27.316Z,15.40
2018-09-24T11:21:01.200Z,15.40
2018-09-24T11:23:35.144Z,15.40
2018-09-24T11:26:09.000Z,15.30
2018-09-24T11:28:42.804Z,15.40
2018-09-24T11:31:16.700Z,15.40
2018-09-24T11:33:50.681Z,15.50
2018-09-24T11:36:24.603Z,15.40
2018-09-24T11:38:59.007Z,15.60
2018-09-24T11:41:33.138Z,15.40
2018-09-24T11:44:07.176Z,15.40
2018-09-24T11:46:43.007Z,15.50
2018-09-24T11:49:16.738Z,15.70
2018-09-24T11:51:50.574Z,15.80
2018-09-24T11:54:24.451Z,15.70
2018-09-24T11:56:58.389Z,15.50
2018-09-24T11:59:32.127Z,15.60
2018-09-24T12:02:06.322Z,15.50
2018-09-24T12:04:40.207Z,15.30
2018-09-24T12:07:14.024Z,15.20
2018-09-24T12:09:47.869Z,15.40
2018-09-24T12:12:21.807Z,16.00
2018-09-24T12:14:55.910Z,15.90
2018-09-24T12:17:29.688Z,16.20
2018-09-24T12:20:03.588Z,16.20
2018-09-24T12:22:37.634Z,16.10
2018-09-24T12:25:11.409Z,16.40
2018-09-24T12:27:45.864Z,15.90
2018-09-24T12:30:19.943Z,16.00
2018-09-24T12:32:54.105Z,15.80
2018-09-24T12:35:28.029Z,15.80
2018-09-24T12:38:02.025Z,15.80
2018-09-24T12:40:36.108Z,15.50
2018-09-24T12:43:10.202Z,15.40
2018-09-24T12:45:44.055Z,15.00
2018-09-24T12:48:18.030Z,14.80
2018-09-24T12:50:51.801Z,14.30
2018-09-24T12:53:25.900Z,14.10
2018-09-24T12:55:59.594Z,13.80
2018-09-24T12:58:33.529Z,13.80
2018-09-24T13:01:07.369Z,13.70
2018-09-24T13:03:41.507Z,13.90
2018-09-24T13:06:15.362Z,13.80
2018-09-24T13:08:49.379Z,14.00
2018-09-24T13:11:23.437Z,14.20
2018-09-24T13:13:57.353Z,14.20
2018-09-24T13:16:31.918Z,14.20
2018-09-24T13:19:05.958Z,14.40
2018-09-24T13:21:39.725Z,14.70
2018-09-24T13:24:13.523Z,14.60
2018-09-24T13:26:47.503Z,15.00
2018-09-24T13:29:21.462Z,14.90
2018-09-24T13:31:55.352Z,15.00
2018-09-24T13:34:29.255Z,14.70
2018-09-24T13:37:03.190Z,15.20
2018-09-24T13:39:37.271Z,14.90
2018-09-24T13:42:11.008Z,15.00
2018-09-24T13:44:45.543Z,15.30
2018-09-24T13:47:19.304Z,15.00
2018-09-24T13:49:53.379Z,15.20
2018-09-24T13:52:27.469Z,15.30
2018-09-24T13:55:01.234Z,15.20
2018-09-24T13:57:35.379Z,15.20
2018-09-24T14:00:09.953Z,14.80
2018-09-24T14:02:43.912Z,15.00
2018-09-24T14:05:17.697Z,15.10
2018-09-24T14:07:51.507Z,15.10
2018-09-24T14:10:25.255Z,15.00
2018-09-24T14:12:59.223Z,15.20
2018-09-24T14:15:34.019Z,14.90
2018-09-24T14:18:07.856Z,14.90
2018-09-24T14:20:41.745Z,15.10
2018-09-24T14:23:15.496Z,15.30
2018-09-24T14:25:49.157Z,15.20
2018-09-24T14:28:23.045Z,14.90
2018-09-24T14:30:56.920Z,15.10
2018-09-24T14:33:30.959Z,14.90
2018-09-24T14:38:43.975Z,14.70
2018-09-24T14:41:18.035Z,14.60
2018-09-24T14:43:52.095Z,14.60
2018-09-24T14:46:25.970Z,14.60
2018-09-24T14:48:59.884Z,14.70
2018-09-24T14:51:33.894Z,14.70
2018-09-24T14:54:08.520Z,15.00
2018-09-24T14:56:42.596Z,15.00
2018-09-24T14:59:16.424Z,15.30
2018-09-24T15:01:50.395Z,15.00
2018-09-24T15:04:24.341Z,15.10
2018-09-24T15:06:58.264Z,15.40
2018-09-24T15:09:32.173Z,15.10
2018-09-24T15:12:06.873Z,15.00
2018-09-24T15:14:41.013Z,15.40
2018-09-24T15:17:14.886Z,15.30
2018-09-24T15:19:48.745Z,14.90
2018-09-24T15:22:22.573Z,15.10
2018-09-24T15:24:56.597Z,15.10
2018-09-24T15:27:30.588Z,15.00
2018-09-24T15:30:04.454Z,15.30
2018-09-24T15:32:38.312Z,15.00
2018-09-24T15:35:12.200Z,14.90
2018-09-24T15:37:46.124Z,15.00
2018-09-24T15:40:20.030Z,15.00
2018-09-24T15:42:54.180Z,14.90
2018-09-24T15:45:28.378Z,14.90
2018-09-24T15:48:02.399Z,14.90
2018-09-24T15:50:36.362Z,14.80
2018-09-24T15:53:10.190Z,14.90
2018-09-24T15:55:44.127Z,14.90
2018-09-24T15:58:18.111Z,14.80
2018-09-24T16:00:52.096Z,15.00
2018-09-24T16:03:26.503Z,14.80
2018-09-24T16:06:00.787Z,14.90
2018-09-24T16:08:34.859Z,14.90
2018-09-24T16:11:08.972Z,14.90
2018-09-24T16:13:42.835Z,14.80
2018-09-24T16:16:16.930Z,15.10
2018-09-24T16:18:50.759Z,14.90
2018-09-24T16:21:24.904Z,14.90
2018-09-24T16:23:59.209Z,15.10
2018-09-24T16:26:34.057Z,15.10
2018-09-24T16:29:08.783Z,15.30
2018-09-24T16:31:43.709Z,15.20
2018-09-24T16:34:17.781Z,15.20
2018-09-24T16:36:51.562Z,15.10
2018-09-24T16:39:25.444Z,15.10
2018-09-24T16:41:59.300Z,15.00
2018-09-24T16:44:33.098Z,15.00
2018-09-24T16:47:06.941Z,15.00
2018-09-24T16:49:40.919Z,14.50
2018-09-24T16:52:14.833Z,14.70
2018-09-24T16:54:48.618Z,14.70
2018-09-24T16:57:22.682Z,14.60
2018-09-24T16:59:56.571Z,14.70
2018-09-24T17:02:30.516Z,14.60
2018-09-24T17:05:04.479Z,14.60
2018-09-24T17:07:38.338Z,14.50
2018-09-24T17:10:12.384Z,14.60
2018-09-24T17:12:46.365Z,14.40
2018-09-24T17:15:20.387Z,14.40
2018-09-24T17:17:54.310Z,14.60
2018-09-24T17:20:28.294Z,14.50
2018-09-24T17:23:02.288Z,14.40
2018-09-24T17:25:36.110Z,14.60
2018-09-24T17:28:10.056Z,14.30
2018-09-24T17:30:44.573Z,14.80
2018-09-24T17:33:18.620Z,14.30
2018-09-24T17:35:52.507Z,14.50
2018-09-24T17:38:26.563Z,14.30
2018-09-24T17:41:00.648Z,14.60
2018-09-24T17:43:34.739Z,14.40
2018-09-24T17:46:08.468Z,14.10
2018-09-24T17:48:42.423Z,14.20
2018-09-24T17:51:16.313Z,14.20
2018-09-24T17:53:50.198Z,14.10
2018-09-24T17:56:23.993Z,14.30
2018-09-24T17:58:57.935Z,14.00
2018-09-24T18:01:32.037Z,14.20
2018-09-24T18:04:05.871Z,14.00
2018-09-24T18:06:39.974Z,13.90
2018-09-24T18:09:14.036Z,13.90
2018-09-24T18:11:47.829Z,13.70
2018-09-24T18:14:21.868Z,13.70
2018-09-24T18:16:55.872Z,13.90
2018-09-24T18:19:30.096Z,13.80
2018-09-24T18:22:03.955Z,13.80
2018-09-24T18:24:37.845Z,13.70
2018-09-24T18:27:11.663Z,13.70
2018-09-24T18:29:45.592Z,13.80
2018-09-24T18:32:19.546Z,13.50
2018-09-24T18:34:53.705Z,13.60
2018-09-24T18:37:27.561Z,13.40
2018-09-24T18:40:01.441Z,13.70
2018-09-24T18:42:35.358Z,13.70
2018-09-24T18:45:09.249Z,13.60
2018-09-24T18:47:43.117Z,13.80
2018-09-24T18:50:17.108Z,13.80
2018-09-24T18:52:50.941Z,13.70
2018-09-24T18:55:24.876Z,13.70
2018-09-24T18:57:58.781Z,13.50
2018-09-24T19:00:32.828Z,13.80
2018-09-24T19:03:06.705Z,13.70
2018-09-24T19:05:40.601Z,13.70
2018-09-24T19:08:14.526Z,13.50
2018-09-24T19:10:48.458Z,13.50
2018-09-24T19:13:22.353Z,13.60
2018-09-24T19:15:56.671Z,13.50
2018-09-24T19:18:30.807Z,13.40
2018-09-24T19:21:04.756Z,13.30
2018-09-24T19:23:38.722Z,13.60
2018-09-24T19:26:12.820Z,13.50
2018-09-24T19:28:46.448Z,13.50
2018-09-24T19:31:20.303Z,13.60
2018-09-24T19:33:54.132Z,13.70
2018-09-24T19:36:27.920Z,13.50
2018-09-24T19:39:01.645Z,14.00
2018-09-24T19:41:35.537Z,13.90
2018-09-24T19:44:09.484Z,13.60
2018-09-24T19:46:43.471Z,13.80
2018-09-24T19:49:17.547Z,13.80
2018-09-24T19:51:51.292Z,13.90
2018-09-24T19:54:25.138Z,13.80
2018-09-24T19:56:59.001Z,14.00
2018-09-24T19:59:32.802Z,14.10
2018-09-24T20:02:06.872Z,14.00
2018-09-24T20:04:40.842Z,14.00
2018-09-24T20:07:14.774Z,14.20
2018-09-24T20:09:48.668Z,14.30
2018-09-24T20:12:22.697Z,14.50
2018-09-24T20:14:56.783Z,14.10
2018-09-24T20:17:31.382Z,14.20
2018-09-24T20:20:05.288Z,14.30
2018-09-24T20:22:39.324Z,14.30
2018-09-24T20:25:13.255Z,14.60
2018-09-24T20:27:47.146Z,14.20
2018-09-24T20:30:20.999Z,14.40
2018-09-24T20:32:54.784Z,14.40
2018-09-24T20:35:28.793Z,14.10
2018-09-24T20:38:02.640Z,14.30
2018-09-24T20:40:36.615Z,14.20
2018-09-24T20:43:10.516Z,14.10
2018-09-24T20:45:44.381Z,13.90
2018-09-24T20:48:18.337Z,13.80
2018-09-24T20:50:52.327Z,13.70
2018-09-24T20:53:26.515Z,13.70
2018-09-24T20:56:00.582Z,13.50
2018-09-24T20:58:34.637Z,13.50
2018-09-24T21:01:08.447Z,13.30
2018-09-24T21:03:42.544Z,13.20
2018-09-24T21:06:16.347Z,13.20
2018-09-24T21:08:50.226Z,13.30
2018-09-24T21:11:25.366Z,13.30
2018-09-24T21:13:59.207Z,13.20
2018-09-24T21:16:33.132Z,13.30
2018-09-24T21:19:07.248Z,13.10
2018-09-24T21:21:41.181Z,13.30
2018-09-24T21:24:15.700Z,12.90
2018-09-24T21:26:49.780Z,13.00
2018-09-24T21:29:24.138Z,12.80
2018-09-24T21:31:58.735Z,12.70
2018-09-24T21:34:32.761Z,12.80
2018-09-24T21:37:06.538Z,12.90
2018-09-24T21:39:40.483Z,12.70
2018-09-24T21:42:14.416Z,12.50
2018-09-24T21:44:48.535Z,12.60
2018-09-24T21:47:22.521Z,12.70
2018-09-24T21:49:56.935Z,12.60
2018-09-24T21:52:30.881Z,12.40
2018-09-24T21:55:04.909Z,12.40
2018-09-24T21:57:38.804Z,12.40
2018-09-24T22:00:12.842Z,12.00
2018-09-24T22:02:46.632Z,12.30
2018-09-24T22:05:20.498Z,12.40
2018-09-24T22:07:54.375Z,12.50
2018-09-24T22:10:28.214Z,12.40
2018-09-24T22:13:01.993Z,12.50
2018-09-24T22:15:36.011Z,12.50
2018-09-24T22:18:10.040Z,12.40
2018-09-24T22:20:43.981Z,12.10
2018-09-24T22:23:18.015Z,12.30
2018-09-24T22:25:52.008Z,12.40
2018-09-24T22:28:26.159Z,12.20
2018-09-24T22:31:00.106Z,12.00
2018-09-24T22:33:34.347Z,12.30
2018-09-24T22:36:08.144Z,12.30
2018-09-24T22:38:41.797Z,12.30
2018-09-24T22:41:15.740Z,12.20
2018-09-24T22:43:49.651Z,12.40
2018-09-24T22:46:23.518Z,12.30
2018-09-24T22:48:57.305Z,12.30
2018-09-24T22:51:31.197Z,12.50
2018-09-24T22:54:05.122Z,12.50
2018-09-24T22:56:39.035Z,12.60
2018-09-24T22:59:13.028Z,12.30
2018-09-24T23:01:46.832Z,12.30
2018-09-24T23:04:20.581Z,12.40
2018-09-24T23:06:54.650Z,12.10
2018-09-24T23:09:28.636Z,12.20
2018-09-24T23:12:02.873Z,12.00
2018-09-24T23:14:36.690Z,12.00
2018-09-24T23:17:10.604Z,11.80
2018-09-24T23:19:44.559Z,11.90
2018-09-24T23:22:18.586Z,11.90
2018-09-24T23:24:52.459Z,11.70
2018-09-24T23:27:26.248Z,11.70
2018-09-24T23:30:00.105Z,11.80
2018-09-24T23:32:33.892Z,11.40
2018-09-24T23:35:07.955Z,11.50
2018-09-24T23:37:41.894Z,11.60
2018-09-24T23:40:15.812Z,11.60
2018-09-24T23:42:49.813Z,11.40
2018-09-24T23:45:23.925Z,11.40
2018-09-24T23:47:58.141Z,11.40
2018-09-24T23:50:31.981Z,11.50
2018-09-24T23:53:06.575Z,11.50
2018-09-24T23:55:41.195Z,11.60
2018-09-24T23:58:15.183Z,11.40
